sensor_id;sensor_type;location;lat;lon;timestamp;P1;durP1;ratioP1;P2;durP2;ratioP2
4355;SDS011;64374;51.482;7.408;2024-01-30T00:00:10;10.43;;;6.93;;
4355;SDS011;64374;51.482;7.408;2024-01-30T00:02:38;8.00;;;5.85;;
4355;SDS011;64374;51.482;7.408;2024-01-30T00:05:07;9.35;;;5.90;;
4355;SDS011;64374;51.482;7.408;2024-01-30T00:07:35;7.00;;;5.55;;
4355;SDS011;64374;51.482;7.408;2024-01-30T00:10:03;7.97;;;6.25;;
4355;SDS011;64374;51.482;7.408;2024-01-30T00:12:34;8.32;;;6.07;;
4355;SDS011;64374;51.482;7.408;2024-01-30T00:15:03;9.25;;;5.95;;
4355;SDS011;64374;51.482;7.408;2024-01-30T00:17:34;8.32;;;6.78;;
4355;SDS011;64374;51.482;7.408;2024-01-30T00:20:05;9.05;;;6.78;;
4355;SDS011;64374;51.482;7.408;2024-01-30T00:22:35;7.88;;;6.50;;
4355;SDS011;64374;51.482;7.408;2024-01-30T00:25:04;9.63;;;6.40;;
4355;SDS011;64374;51.482;7.408;2024-01-30T00:27:34;8.45;;;6.10;;
4355;SDS011;64374;51.482;7.408;2024-01-30T00:30:02;9.77;;;6.70;;
4355;SDS011;64374;51.482;7.408;2024-01-30T00:32:31;9.35;;;6.38;;
4355;SDS011;64374;51.482;7.408;2024-01-30T00:34:59;9.32;;;6.72;;
4355;SDS011;64374;51.482;7.408;2024-01-30T00:37:28;8.90;;;6.70;;
4355;SDS011;64374;51.482;7.408;2024-01-30T00:39:59;9.43;;;7.13;;
4355;SDS011;64374;51.482;7.408;2024-01-30T00:42:27;8.43;;;6.22;;
4355;SDS011;64374;51.482;7.408;2024-01-30T00:44:57;10.60;;;6.75;;
4355;SDS011;64374;51.482;7.408;2024-01-30T00:47:25;9.63;;;7.07;;
4355;SDS011;64374;51.482;7.408;2024-01-30T00:49:56;10.63;;;7.30;;
4355;SDS011;64374;51.482;7.408;2024-01-30T00:52:24;10.07;;;7.00;;
4355;SDS011;64374;51.482;7.408;2024-01-30T00:54:53;8.20;;;7.00;;
4355;SDS011;64374;51.482;7.408;2024-01-30T00:57:24;10.23;;;7.43;;
4355;SDS011;64374;51.482;7.408;2024-01-30T00:59:53;12.70;;;7.28;;
4355;SDS011;64374;51.482;7.408;2024-01-30T01:02:27;9.77;;;7.32;;
4355;SDS011;64374;51.482;7.408;2024-01-30T01:04:56;12.10;;;6.63;;
4355;SDS011;64374;51.482;7.408;2024-01-30T01:07:24;9.45;;;7.18;;
4355;SDS011;64374;51.482;7.408;2024-01-30T01:09:54;8.85;;;7.05;;
4355;SDS011;64374;51.482;7.408;2024-01-30T01:12:22;10.48;;;7.45;;
4355;SDS011;64374;51.482;7.408;2024-01-30T01:14:50;9.18;;;7.18;;
4355;SDS011;64374;51.482;7.408;2024-01-30T01:17:21;9.00;;;7.03;;
4355;SDS011;64374;51.482;7.408;2024-01-30T01:19:50;12.10;;;7.57;;
4355;SDS011;64374;51.482;7.408;2024-01-30T01:22:19;9.77;;;7.00;;
4355;SDS011;64374;51.482;7.408;2024-01-30T01:24:47;8.88;;;6.90;;
4355;SDS011;64374;51.482;7.408;2024-01-30T01:27:15;9.73;;;6.78;;
4355;SDS011;64374;51.482;7.408;2024-01-30T01:29:46;8.32;;;6.80;;
4355;SDS011;64374;51.482;7.408;2024-01-30T01:32:15;12.02;;;7.78;;
4355;SDS011;64374;51.482;7.408;2024-01-30T01:34:43;9.15;;;7.20;;
4355;SDS011;64374;51.482;7.408;2024-01-30T01:37:13;9.88;;;7.13;;
4355;SDS011;64374;51.482;7.408;2024-01-30T01:39:41;11.10;;;7.00;;
4355;SDS011;64374;51.482;7.408;2024-01-30T01:42:09;12.03;;;6.83;;
4355;SDS011;64374;51.482;7.408;2024-01-30T01:44:37;9.93;;;6.13;;
4355;SDS011;64374;51.482;7.408;2024-01-30T01:57:01;11.93;;;6.30;;
4355;SDS011;64374;51.482;7.408;2024-01-30T01:59:29;10.53;;;7.07;;
4355;SDS011;64374;51.482;7.408;2024-01-30T02:01:57;11.70;;;7.00;;
4355;SDS011;64374;51.482;7.408;2024-01-30T02:04:29;9.80;;;7.25;;
4355;SDS011;64374;51.482;7.408;2024-01-30T02:07:04;9.30;;;7.18;;
4355;SDS011;64374;51.482;7.408;2024-01-30T02:09:34;9.23;;;7.10;;
4355;SDS011;64374;51.482;7.408;2024-01-30T02:12:02;11.70;;;7.70;;
4355;SDS011;64374;51.482;7.408;2024-01-30T02:14:30;9.80;;;7.50;;
4355;SDS011;64374;51.482;7.408;2024-01-30T02:16:58;10.13;;;7.30;;
4355;SDS011;64374;51.482;7.408;2024-01-30T02:19:26;8.07;;;6.90;;
4355;SDS011;64374;51.482;7.408;2024-01-30T02:21:56;11.43;;;6.97;;
4355;SDS011;64374;51.482;7.408;2024-01-30T02:26:52;12.43;;;6.50;;
4355;SDS011;64374;51.482;7.408;2024-01-30T02:29:21;8.85;;;6.60;;
4355;SDS011;64374;51.482;7.408;2024-01-30T02:31:49;10.52;;;6.95;;
4355;SDS011;64374;51.482;7.408;2024-01-30T02:34:24;11.90;;;7.15;;
4355;SDS011;64374;51.482;7.408;2024-01-30T02:36:53;9.55;;;7.00;;
4355;SDS011;64374;51.482;7.408;2024-01-30T02:39:25;6.70;;;5.60;;
4355;SDS011;64374;51.482;7.408;2024-01-30T02:41:55;9.87;;;6.13;;
4355;SDS011;64374;51.482;7.408;2024-01-30T02:44:25;8.87;;;6.30;;
4355;SDS011;64374;51.482;7.408;2024-01-30T02:46:54;10.53;;;6.20;;
4355;SDS011;64374;51.482;7.408;2024-01-30T02:49:23;10.20;;;6.53;;
4355;SDS011;64374;51.482;7.408;2024-01-30T02:51:51;9.80;;;6.80;;
4355;SDS011;64374;51.482;7.408;2024-01-30T02:54:20;13.00;;;7.28;;
4355;SDS011;64374;51.482;7.408;2024-01-30T02:56:50;8.88;;;6.25;;
4355;SDS011;64374;51.482;7.408;2024-01-30T02:59:21;10.80;;;7.27;;
4355;SDS011;64374;51.482;7.408;2024-01-30T03:01:49;9.43;;;6.45;;
4355;SDS011;64374;51.482;7.408;2024-01-30T03:04:18;9.75;;;6.50;;
4355;SDS011;64374;51.482;7.408;2024-01-30T03:06:47;8.85;;;6.47;;
4355;SDS011;64374;51.482;7.408;2024-01-30T03:09:16;7.57;;;6.00;;
4355;SDS011;64374;51.482;7.408;2024-01-30T03:11:48;7.30;;;6.53;;
4355;SDS011;64374;51.482;7.408;2024-01-30T03:14:19;8.70;;;6.60;;
4355;SDS011;64374;51.482;7.408;2024-01-30T03:16:47;10.65;;;7.10;;
4355;SDS011;64374;51.482;7.408;2024-01-30T03:19:18;8.87;;;6.30;;
4355;SDS011;64374;51.482;7.408;2024-01-30T03:21:54;10.65;;;6.30;;
4355;SDS011;64374;51.482;7.408;2024-01-30T03:24:26;9.50;;;6.33;;
4355;SDS011;64374;51.482;7.408;2024-01-30T03:26:56;8.68;;;6.43;;
4355;SDS011;64374;51.482;7.408;2024-01-30T03:29:27;11.50;;;6.75;;
4355;SDS011;64374;51.482;7.408;2024-01-30T03:31:56;7.22;;;5.90;;
4355;SDS011;64374;51.482;7.408;2024-01-30T03:34:24;7.82;;;6.75;;
4355;SDS011;64374;51.482;7.408;2024-01-30T03:36:52;8.90;;;6.33;;
4355;SDS011;64374;51.482;7.408;2024-01-30T03:39:24;8.55;;;6.43;;
4355;SDS011;64374;51.482;7.408;2024-01-30T03:41:56;7.90;;;6.20;;
4355;SDS011;64374;51.482;7.408;2024-01-30T03:44:27;8.80;;;6.30;;
4355;SDS011;64374;51.482;7.408;2024-01-30T03:46:58;9.55;;;6.15;;
4355;SDS011;64374;51.482;7.408;2024-01-30T03:49:27;9.02;;;6.00;;
4355;SDS011;64374;51.482;7.408;2024-01-30T03:51:55;8.27;;;5.80;;
4355;SDS011;64374;51.482;7.408;2024-01-30T03:54:23;8.37;;;6.23;;
4355;SDS011;64374;51.482;7.408;2024-01-30T03:56:55;7.72;;;6.20;;
4355;SDS011;64374;51.482;7.408;2024-01-30T03:59:26;9.30;;;5.70;;
4355;SDS011;64374;51.482;7.408;2024-01-30T04:01:54;7.55;;;5.70;;
4355;SDS011;64374;51.482;7.408;2024-01-30T04:04:25;8.20;;;5.70;;
4355;SDS011;64374;51.482;7.408;2024-01-30T04:06:54;6.75;;;5.15;;
4355;SDS011;64374;51.482;7.408;2024-01-30T04:09:22;7.90;;;5.57;;
4355;SDS011;64374;51.482;7.408;2024-01-30T04:11:50;11.53;;;4.77;;
4355;SDS011;64374;51.482;7.408;2024-01-30T04:14:21;8.17;;;4.60;;
4355;SDS011;64374;51.482;7.408;2024-01-30T04:16:49;8.20;;;4.70;;
4355;SDS011;64374;51.482;7.408;2024-01-30T04:39:12;5.87;;;4.50;;
4355;SDS011;64374;51.482;7.408;2024-01-30T04:41:40;6.68;;;5.30;;
4355;SDS011;64374;51.482;7.408;2024-01-30T04:44:08;7.35;;;4.97;;
4355;SDS011;64374;51.482;7.408;2024-01-30T04:46:37;8.57;;;5.60;;
4355;SDS011;64374;51.482;7.408;2024-01-30T04:49:06;6.03;;;4.97;;
4355;SDS011;64374;51.482;7.408;2024-01-30T04:51:35;9.45;;;5.63;;
4355;SDS011;64374;51.482;7.408;2024-01-30T04:54:03;8.20;;;5.40;;
4355;SDS011;64374;51.482;7.408;2024-01-30T04:56:31;8.27;;;5.68;;
4355;SDS011;64374;51.482;7.408;2024-01-30T04:59:00;7.25;;;5.55;;
4355;SDS011;64374;51.482;7.408;2024-01-30T05:01:28;7.10;;;5.32;;
4355;SDS011;64374;51.482;7.408;2024-01-30T05:03:57;7.10;;;5.50;;
4355;SDS011;64374;51.482;7.408;2024-01-30T05:06:29;6.78;;;4.80;;
4355;SDS011;64374;51.482;7.408;2024-01-30T05:08:57;7.55;;;4.90;;
4355;SDS011;64374;51.482;7.408;2024-01-30T05:11:28;8.20;;;5.50;;
4355;SDS011;64374;51.482;7.408;2024-01-30T05:13:56;7.63;;;4.68;;
4355;SDS011;64374;51.482;7.408;2024-01-30T05:16:26;7.43;;;4.97;;
4355;SDS011;64374;51.482;7.408;2024-01-30T05:18:55;5.55;;;4.63;;
4355;SDS011;64374;51.482;7.408;2024-01-30T05:21:26;8.23;;;5.60;;
4355;SDS011;64374;51.482;7.408;2024-01-30T05:23:56;7.50;;;5.03;;
4355;SDS011;64374;51.482;7.408;2024-01-30T05:26:25;7.78;;;5.20;;
4355;SDS011;64374;51.482;7.408;2024-01-30T05:29:01;7.20;;;5.00;;
4355;SDS011;64374;51.482;7.408;2024-01-30T05:31:29;7.67;;;5.20;;
4355;SDS011;64374;51.482;7.408;2024-01-30T05:36:26;10.07;;;5.40;;
4355;SDS011;64374;51.482;7.408;2024-01-30T05:38:56;9.40;;;5.03;;
4355;SDS011;64374;51.482;7.408;2024-01-30T05:41:25;10.50;;;5.83;;
4355;SDS011;64374;51.482;7.408;2024-01-30T05:44:00;9.05;;;5.07;;
4355;SDS011;64374;51.482;7.408;2024-01-30T05:46:31;8.93;;;5.40;;
4355;SDS011;64374;51.482;7.408;2024-01-30T05:48:59;8.77;;;5.40;;
4355;SDS011;64374;51.482;7.408;2024-01-30T05:51:30;5.97;;;4.60;;
4355;SDS011;64374;51.482;7.408;2024-01-30T06:01:47;7.30;;;5.30;;
4355;SDS011;64374;51.482;7.408;2024-01-30T06:04:21;6.60;;;4.47;;
4355;SDS011;64374;51.482;7.408;2024-01-30T06:06:49;15.53;;;4.17;;
4355;SDS011;64374;51.482;7.408;2024-01-30T06:09:18;7.63;;;4.37;;
4355;SDS011;64374;51.482;7.408;2024-01-30T06:24:08;9.00;;;5.07;;
4355;SDS011;64374;51.482;7.408;2024-01-30T06:26:37;8.38;;;5.30;;
4355;SDS011;64374;51.482;7.408;2024-01-30T06:29:09;5.90;;;4.97;;
4355;SDS011;64374;51.482;7.408;2024-01-30T06:31:39;8.45;;;4.75;;
4355;SDS011;64374;51.482;7.408;2024-01-30T06:34:11;7.03;;;5.32;;
4355;SDS011;64374;51.482;7.408;2024-01-30T06:36:41;7.90;;;5.60;;
4355;SDS011;64374;51.482;7.408;2024-01-30T06:39:10;6.68;;;5.40;;
4355;SDS011;64374;51.482;7.408;2024-01-30T06:41:38;6.97;;;5.33;;
4355;SDS011;64374;51.482;7.408;2024-01-30T06:44:06;7.68;;;5.40;;
4355;SDS011;64374;51.482;7.408;2024-01-30T06:46:40;7.80;;;5.30;;
4355;SDS011;64374;51.482;7.408;2024-01-30T06:49:11;8.35;;;5.15;;
4355;SDS011;64374;51.482;7.408;2024-01-30T06:51:39;6.00;;;5.13;;
4355;SDS011;64374;51.482;7.408;2024-01-30T06:54:13;6.80;;;4.60;;
4355;SDS011;64374;51.482;7.408;2024-01-30T06:56:41;7.40;;;5.20;;
4355;SDS011;64374;51.482;7.408;2024-01-30T06:59:09;7.43;;;5.10;;
4355;SDS011;64374;51.482;7.408;2024-01-30T07:01:39;7.57;;;4.80;;
4355;SDS011;64374;51.482;7.408;2024-01-30T07:04:07;7.55;;;5.32;;
4355;SDS011;64374;51.482;7.408;2024-01-30T07:06:35;7.75;;;5.07;;
4355;SDS011;64374;51.482;7.408;2024-01-30T07:09:05;6.63;;;5.35;;
4355;SDS011;64374;51.482;7.408;2024-01-30T07:11:34;7.90;;;5.30;;
4355;SDS011;64374;51.482;7.408;2024-01-30T07:14:08;8.70;;;5.60;;
4355;SDS011;64374;51.482;7.408;2024-01-30T07:16:38;6.68;;;4.85;;
4355;SDS011;64374;51.482;7.408;2024-01-30T07:19:06;6.18;;;4.93;;
4355;SDS011;64374;51.482;7.408;2024-01-30T07:21:36;7.82;;;4.70;;
4355;SDS011;64374;51.482;7.408;2024-01-30T07:24:15;6.00;;;4.90;;
4355;SDS011;64374;51.482;7.408;2024-01-30T07:26:43;6.63;;;5.00;;
4355;SDS011;64374;51.482;7.408;2024-01-30T07:29:11;7.72;;;5.10;;
4355;SDS011;64374;51.482;7.408;2024-01-30T07:31:50;5.68;;;4.78;;
4355;SDS011;64374;51.482;7.408;2024-01-30T07:34:19;7.97;;;5.18;;
4355;SDS011;64374;51.482;7.408;2024-01-30T07:36:47;7.32;;;4.78;;
4355;SDS011;64374;51.482;7.408;2024-01-30T07:39:18;7.68;;;5.45;;
4355;SDS011;64374;51.482;7.408;2024-01-30T07:41:48;7.77;;;4.60;;
4355;SDS011;64374;51.482;7.408;2024-01-30T07:44:17;7.05;;;4.90;;
4355;SDS011;64374;51.482;7.408;2024-01-30T07:46:51;7.90;;;5.00;;
4355;SDS011;64374;51.482;7.408;2024-01-30T07:49:26;7.47;;;5.40;;
4355;SDS011;64374;51.482;7.408;2024-01-30T07:51:55;9.48;;;5.30;;
4355;SDS011;64374;51.482;7.408;2024-01-30T07:54:23;8.60;;;5.20;;
4355;SDS011;64374;51.482;7.408;2024-01-30T08:03:56;11.33;;;5.50;;
4355;SDS011;64374;51.482;7.408;2024-01-30T08:06:28;5.77;;;4.80;;
4355;SDS011;64374;51.482;7.408;2024-01-30T08:08:56;5.53;;;4.70;;
4355;SDS011;64374;51.482;7.408;2024-01-30T08:11:27;8.90;;;5.38;;
4355;SDS011;64374;51.482;7.408;2024-01-30T08:13:56;8.70;;;5.60;;
4355;SDS011;64374;51.482;7.408;2024-01-30T08:16:31;7.95;;;5.28;;
4355;SDS011;64374;51.482;7.408;2024-01-30T08:19:11;8.68;;;5.20;;
4355;SDS011;64374;51.482;7.408;2024-01-30T08:21:42;7.70;;;5.45;;
4355;SDS011;64374;51.482;7.408;2024-01-30T08:24:13;7.50;;;5.40;;
4355;SDS011;64374;51.482;7.408;2024-01-30T08:26:41;11.90;;;5.50;;
4355;SDS011;64374;51.482;7.408;2024-01-30T08:29:11;8.17;;;5.27;;
4355;SDS011;64374;51.482;7.408;2024-01-30T08:31:40;7.30;;;4.70;;
4355;SDS011;64374;51.482;7.408;2024-01-30T08:34:12;10.90;;;5.50;;
4355;SDS011;64374;51.482;7.408;2024-01-30T08:36:42;8.40;;;5.63;;
4355;SDS011;64374;51.482;7.408;2024-01-30T08:39:12;9.23;;;5.23;;
4355;SDS011;64374;51.482;7.408;2024-01-30T08:56:36;9.50;;;5.07;;
4355;SDS011;64374;51.482;7.408;2024-01-30T09:19:16;6.90;;;5.13;;
4355;SDS011;64374;51.482;7.408;2024-01-30T09:21:45;8.73;;;5.60;;
4355;SDS011;64374;51.482;7.408;2024-01-30T09:24:19;7.38;;;5.60;;
4355;SDS011;64374;51.482;7.408;2024-01-30T09:26:47;8.45;;;5.65;;
4355;SDS011;64374;51.482;7.408;2024-01-30T09:29:16;8.27;;;5.68;;
4355;SDS011;64374;51.482;7.408;2024-01-30T09:31:44;9.07;;;5.80;;
4355;SDS011;64374;51.482;7.408;2024-01-30T09:34:14;6.95;;;6.03;;
4355;SDS011;64374;51.482;7.408;2024-01-30T09:36:42;7.95;;;5.82;;
4355;SDS011;64374;51.482;7.408;2024-01-30T09:39:13;10.13;;;5.93;;
4355;SDS011;64374;51.482;7.408;2024-01-30T09:41:46;7.78;;;5.50;;
4355;SDS011;64374;51.482;7.408;2024-01-30T09:44:17;10.27;;;6.20;;
4355;SDS011;64374;51.482;7.408;2024-01-30T09:46:48;7.70;;;6.32;;
4355;SDS011;64374;51.482;7.408;2024-01-30T09:49:16;8.73;;;6.10;;
4355;SDS011;64374;51.482;7.408;2024-01-30T09:51:48;9.20;;;5.90;;
4355;SDS011;64374;51.482;7.408;2024-01-30T09:54:18;10.70;;;6.50;;
4355;SDS011;64374;51.482;7.408;2024-01-30T09:56:48;6.07;;;5.47;;
4355;SDS011;64374;51.482;7.408;2024-01-30T09:59:16;8.48;;;6.20;;
4355;SDS011;64374;51.482;7.408;2024-01-30T10:01:47;6.63;;;5.80;;
4355;SDS011;64374;51.482;7.408;2024-01-30T10:04:15;9.70;;;5.60;;
4355;SDS011;64374;51.482;7.408;2024-01-30T10:06:44;8.13;;;5.53;;
4355;SDS011;64374;51.482;7.408;2024-01-30T10:09:14;7.13;;;5.50;;
4355;SDS011;64374;51.482;7.408;2024-01-30T10:11:44;9.15;;;5.65;;
4355;SDS011;64374;51.482;7.408;2024-01-30T10:14:12;9.32;;;6.03;;
4355;SDS011;64374;51.482;7.408;2024-01-30T10:16:40;8.27;;;5.97;;
4355;SDS011;64374;51.482;7.408;2024-01-30T10:19:12;10.48;;;6.30;;
4355;SDS011;64374;51.482;7.408;2024-01-30T10:21:40;9.85;;;5.95;;
4355;SDS011;64374;51.482;7.408;2024-01-30T10:24:09;8.20;;;5.80;;
4355;SDS011;64374;51.482;7.408;2024-01-30T10:26:39;10.85;;;5.70;;
4355;SDS011;64374;51.482;7.408;2024-01-30T10:29:08;6.95;;;5.78;;
4355;SDS011;64374;51.482;7.408;2024-01-30T10:31:37;7.82;;;5.28;;
4355;SDS011;64374;51.482;7.408;2024-01-30T10:34:06;9.43;;;5.55;;
4355;SDS011;64374;51.482;7.408;2024-01-30T10:36:47;8.27;;;5.47;;
4355;SDS011;64374;51.482;7.408;2024-01-30T10:39:21;8.88;;;5.47;;
4355;SDS011;64374;51.482;7.408;2024-01-30T10:41:59;9.13;;;5.90;;
4355;SDS011;64374;51.482;7.408;2024-01-30T10:44:48;10.77;;;5.40;;
4355;SDS011;64374;51.482;7.408;2024-01-30T10:47:32;10.23;;;5.40;;
4355;SDS011;64374;51.482;7.408;2024-01-30T10:50:03;8.30;;;5.70;;
4355;SDS011;64374;51.482;7.408;2024-01-30T10:52:39;10.40;;;5.67;;
4355;SDS011;64374;51.482;7.408;2024-01-30T10:55:10;8.00;;;6.18;;
4355;SDS011;64374;51.482;7.408;2024-01-30T10:57:41;6.47;;;5.20;;
4355;SDS011;64374;51.482;7.408;2024-01-30T11:00:11;7.55;;;5.35;;
4355;SDS011;64374;51.482;7.408;2024-01-30T11:02:43;8.77;;;5.70;;
4355;SDS011;64374;51.482;7.408;2024-01-30T11:05:13;9.93;;;6.47;;
4355;SDS011;64374;51.482;7.408;2024-01-30T11:07:42;8.53;;;5.77;;
4355;SDS011;64374;51.482;7.408;2024-01-30T11:10:12;10.60;;;5.80;;
4355;SDS011;64374;51.482;7.408;2024-01-30T11:12:43;6.73;;;5.00;;
4355;SDS011;64374;51.482;7.408;2024-01-30T11:15:15;5.77;;;5.20;;
4355;SDS011;64374;51.482;7.408;2024-01-30T11:17:44;10.70;;;5.90;;
4355;SDS011;64374;51.482;7.408;2024-01-30T11:20:19;5.93;;;5.33;;
4355;SDS011;64374;51.482;7.408;2024-01-30T11:22:49;8.32;;;5.57;;
4355;SDS011;64374;51.482;7.408;2024-01-30T11:25:21;8.60;;;5.33;;
4355;SDS011;64374;51.482;7.408;2024-01-30T11:27:54;8.70;;;5.90;;
4355;SDS011;64374;51.482;7.408;2024-01-30T11:30:25;9.95;;;5.78;;
4355;SDS011;64374;51.482;7.408;2024-01-30T11:32:58;12.48;;;5.78;;
4355;SDS011;64374;51.482;7.408;2024-01-30T11:35:33;11.00;;;5.80;;
4355;SDS011;64374;51.482;7.408;2024-01-30T11:38:04;13.27;;;6.00;;
4355;SDS011;64374;51.482;7.408;2024-01-30T11:40:33;9.60;;;5.40;;
4355;SDS011;64374;51.482;7.408;2024-01-30T11:43:03;11.93;;;5.90;;
4355;SDS011;64374;51.482;7.408;2024-01-30T11:45:35;11.32;;;5.78;;
4355;SDS011;64374;51.482;7.408;2024-01-30T11:48:06;11.15;;;5.60;;
4355;SDS011;64374;51.482;7.408;2024-01-30T11:50:38;11.30;;;5.60;;
4355;SDS011;64374;51.482;7.408;2024-01-30T11:53:07;16.53;;;6.40;;
4355;SDS011;64374;51.482;7.408;2024-01-30T11:55:36;10.65;;;5.90;;
4355;SDS011;64374;51.482;7.408;2024-01-30T11:58:07;14.45;;;6.57;;
4355;SDS011;64374;51.482;7.408;2024-01-30T12:00:36;17.60;;;7.68;;
4355;SDS011;64374;51.482;7.408;2024-01-30T12:03:05;12.47;;;6.00;;
4355;SDS011;64374;51.482;7.408;2024-01-30T12:05:38;10.67;;;5.60;;
4355;SDS011;64374;51.482;7.408;2024-01-30T12:08:14;12.23;;;5.90;;
4355;SDS011;64374;51.482;7.408;2024-01-30T12:10:42;14.07;;;5.63;;
4355;SDS011;64374;51.482;7.408;2024-01-30T12:13:13;15.30;;;6.00;;
4355;SDS011;64374;51.482;7.408;2024-01-30T12:15:43;13.73;;;5.80;;
4355;SDS011;64374;51.482;7.408;2024-01-30T12:18:21;16.47;;;7.57;;
4355;SDS011;64374;51.482;7.408;2024-01-30T12:20:56;9.80;;;5.73;;
4355;SDS011;64374;51.482;7.408;2024-01-30T12:23:26;12.73;;;5.40;;
4355;SDS011;64374;51.482;7.408;2024-01-30T12:25:57;11.70;;;5.80;;
4355;SDS011;64374;51.482;7.408;2024-01-30T12:28:28;14.55;;;6.80;;
4355;SDS011;64374;51.482;7.408;2024-01-30T12:31:00;13.85;;;7.30;;
4355;SDS011;64374;51.482;7.408;2024-01-30T12:33:30;15.57;;;6.80;;
4355;SDS011;64374;51.482;7.408;2024-01-30T12:36:00;15.13;;;7.03;;
4355;SDS011;64374;51.482;7.408;2024-01-30T12:38:30;13.23;;;6.40;;
4355;SDS011;64374;51.482;7.408;2024-01-30T12:40:58;10.75;;;6.28;;
4355;SDS011;64374;51.482;7.408;2024-01-30T12:43:27;17.23;;;7.20;;
4355;SDS011;64374;51.482;7.408;2024-01-30T12:46:05;15.13;;;7.10;;
4355;SDS011;64374;51.482;7.408;2024-01-30T12:48:35;10.20;;;6.68;;
4355;SDS011;64374;51.482;7.408;2024-01-30T12:51:16;17.10;;;8.10;;
4355;SDS011;64374;51.482;7.408;2024-01-30T12:53:44;17.10;;;7.60;;
4355;SDS011;64374;51.482;7.408;2024-01-30T12:56:14;11.93;;;7.32;;
4355;SDS011;64374;51.482;7.408;2024-01-30T12:58:46;15.18;;;7.05;;
4355;SDS011;64374;51.482;7.408;2024-01-30T13:01:20;11.30;;;7.10;;
4355;SDS011;64374;51.482;7.408;2024-01-30T13:03:49;14.00;;;7.60;;
4355;SDS011;64374;51.482;7.408;2024-01-30T13:06:25;12.50;;;7.13;;
4355;SDS011;64374;51.482;7.408;2024-01-30T13:08:54;14.55;;;7.20;;
4355;SDS011;64374;51.482;7.408;2024-01-30T13:23:53;18.70;;;7.70;;
4355;SDS011;64374;51.482;7.408;2024-01-30T13:26:24;16.77;;;6.97;;
4355;SDS011;64374;51.482;7.408;2024-01-30T13:28:52;14.93;;;7.80;;
4355;SDS011;64374;51.482;7.408;2024-01-30T13:31:22;14.87;;;8.07;;
4355;SDS011;64374;51.482;7.408;2024-01-30T13:33:51;17.90;;;7.70;;
4355;SDS011;64374;51.482;7.408;2024-01-30T13:36:19;14.05;;;7.15;;
4355;SDS011;64374;51.482;7.408;2024-01-30T13:38:48;15.05;;;7.78;;
4355;SDS011;64374;51.482;7.408;2024-01-30T13:41:16;15.85;;;6.90;;
4355;SDS011;64374;51.482;7.408;2024-01-30T13:43:47;14.87;;;7.30;;
4355;SDS011;64374;51.482;7.408;2024-01-30T13:46:15;14.60;;;6.80;;
4355;SDS011;64374;51.482;7.408;2024-01-30T13:48:47;15.90;;;8.40;;
4355;SDS011;64374;51.482;7.408;2024-01-30T13:51:18;12.57;;;7.75;;
4355;SDS011;64374;51.482;7.408;2024-01-30T13:53:46;14.15;;;7.70;;
4355;SDS011;64374;51.482;7.408;2024-01-30T13:56:16;15.95;;;7.82;;
4355;SDS011;64374;51.482;7.408;2024-01-30T13:58:49;15.93;;;8.20;;
4355;SDS011;64374;51.482;7.408;2024-01-30T14:01:20;12.13;;;7.88;;
4355;SDS011;64374;51.482;7.408;2024-01-30T14:03:53;12.53;;;8.17;;
4355;SDS011;64374;51.482;7.408;2024-01-30T14:06:24;12.13;;;7.50;;
4355;SDS011;64374;51.482;7.408;2024-01-30T14:08:52;13.73;;;7.80;;
4355;SDS011;64374;51.482;7.408;2024-01-30T14:11:37;12.27;;;8.00;;
4355;SDS011;64374;51.482;7.408;2024-01-30T14:14:05;15.10;;;8.50;;
4355;SDS011;64374;51.482;7.408;2024-01-30T14:16:33;14.60;;;7.90;;
4355;SDS011;64374;51.482;7.408;2024-01-30T14:19:03;13.13;;;7.60;;
4355;SDS011;64374;51.482;7.408;2024-01-30T14:21:31;11.60;;;7.78;;
4355;SDS011;64374;51.482;7.408;2024-01-30T14:23:59;11.68;;;7.60;;
4355;SDS011;64374;51.482;7.408;2024-01-30T14:26:28;15.00;;;7.40;;
4355;SDS011;64374;51.482;7.408;2024-01-30T14:28:56;12.47;;;8.30;;
4355;SDS011;64374;51.482;7.408;2024-01-30T14:31:26;12.67;;;7.33;;
4355;SDS011;64374;51.482;7.408;2024-01-30T14:33:56;10.83;;;7.70;;
4355;SDS011;64374;51.482;7.408;2024-01-30T14:36:26;13.50;;;7.47;;
4355;SDS011;64374;51.482;7.408;2024-01-30T14:38:57;12.85;;;6.95;;
4355;SDS011;64374;51.482;7.408;2024-01-30T14:41:25;12.85;;;7.47;;
4355;SDS011;64374;51.482;7.408;2024-01-30T14:43:54;12.02;;;7.35;;
4355;SDS011;64374;51.482;7.408;2024-01-30T14:46:23;10.57;;;7.10;;
4355;SDS011;64374;51.482;7.408;2024-01-30T14:48:53;15.67;;;7.83;;
4355;SDS011;64374;51.482;7.408;2024-01-30T14:51:21;15.18;;;7.50;;
4355;SDS011;64374;51.482;7.408;2024-01-30T14:53:56;16.13;;;8.13;;
4355;SDS011;64374;51.482;7.408;2024-01-30T14:56:25;14.93;;;7.20;;
4355;SDS011;64374;51.482;7.408;2024-01-30T14:58:55;10.55;;;7.30;;
4355;SDS011;64374;51.482;7.408;2024-01-30T15:01:24;13.45;;;7.80;;
4355;SDS011;64374;51.482;7.408;2024-01-30T15:03:53;11.57;;;7.05;;
4355;SDS011;64374;51.482;7.408;2024-01-30T15:06:23;14.77;;;8.00;;
4355;SDS011;64374;51.482;7.408;2024-01-30T15:08:55;12.80;;;7.50;;
4355;SDS011;64374;51.482;7.408;2024-01-30T15:11:24;10.75;;;7.25;;
4355;SDS011;64374;51.482;7.408;2024-01-30T15:13:52;13.88;;;8.00;;
4355;SDS011;64374;51.482;7.408;2024-01-30T15:16:21;13.13;;;7.73;;
4355;SDS011;64374;51.482;7.408;2024-01-30T15:18:50;15.73;;;7.80;;
4355;SDS011;64374;51.482;7.408;2024-01-30T15:21:25;13.48;;;8.40;;
4355;SDS011;64374;51.482;7.408;2024-01-30T15:23:58;14.10;;;7.63;;
4355;SDS011;64374;51.482;7.408;2024-01-30T15:26:26;12.10;;;7.65;;
4355;SDS011;64374;51.482;7.408;2024-01-30T15:28:56;13.05;;;7.80;;
4355;SDS011;64374;51.482;7.408;2024-01-30T15:31:24;17.10;;;8.20;;
4355;SDS011;64374;51.482;7.408;2024-01-30T15:33:55;13.88;;;8.02;;
4355;SDS011;64374;51.482;7.408;2024-01-30T15:36:23;14.80;;;8.40;;
4355;SDS011;64374;51.482;7.408;2024-01-30T15:38:52;11.20;;;7.47;;
4355;SDS011;64374;51.482;7.408;2024-01-30T15:41:26;10.88;;;6.95;;
4355;SDS011;64374;51.482;7.408;2024-01-30T15:43:57;14.30;;;7.55;;
4355;SDS011;64374;51.482;7.408;2024-01-30T15:46:28;12.13;;;7.80;;
4355;SDS011;64374;51.482;7.408;2024-01-30T15:48:59;12.00;;;7.70;;
4355;SDS011;64374;51.482;7.408;2024-01-30T15:51:32;11.30;;;8.05;;
4355;SDS011;64374;51.482;7.408;2024-01-30T15:54:14;12.50;;;7.75;;
4355;SDS011;64374;51.482;7.408;2024-01-30T15:56:45;13.65;;;7.63;;
4355;SDS011;64374;51.482;7.408;2024-01-30T15:59:14;15.30;;;7.82;;
4355;SDS011;64374;51.482;7.408;2024-01-30T16:01:44;11.32;;;7.93;;
4355;SDS011;64374;51.482;7.408;2024-01-30T16:04:15;12.57;;;7.03;;
4355;SDS011;64374;51.482;7.408;2024-01-30T16:06:44;11.27;;;6.85;;
4355;SDS011;64374;51.482;7.408;2024-01-30T16:09:31;10.70;;;6.95;;
4355;SDS011;64374;51.482;7.408;2024-01-30T16:12:01;14.43;;;7.20;;
4355;SDS011;64374;51.482;7.408;2024-01-30T16:14:30;10.90;;;7.10;;
4355;SDS011;64374;51.482;7.408;2024-01-30T16:16:58;10.30;;;6.57;;
4355;SDS011;64374;51.482;7.408;2024-01-30T16:19:27;10.40;;;6.75;;
4355;SDS011;64374;51.482;7.408;2024-01-30T16:21:55;11.10;;;6.15;;
4355;SDS011;64374;51.482;7.408;2024-01-30T16:24:23;10.00;;;6.00;;
4355;SDS011;64374;51.482;7.408;2024-01-30T16:26:52;8.63;;;6.30;;
4355;SDS011;64374;51.482;7.408;2024-01-30T16:29:21;10.23;;;5.22;;
4355;SDS011;64374;51.482;7.408;2024-01-30T16:31:50;6.10;;;3.78;;
4355;SDS011;64374;51.482;7.408;2024-01-30T16:34:19;6.30;;;3.50;;
4355;SDS011;64374;51.482;7.408;2024-01-30T16:36:47;3.72;;;2.50;;
4355;SDS011;64374;51.482;7.408;2024-01-30T16:39:16;4.88;;;2.25;;
4355;SDS011;64374;51.482;7.408;2024-01-30T16:41:46;6.33;;;1.90;;
4355;SDS011;64374;51.482;7.408;2024-01-30T16:44:14;5.50;;;1.70;;
4355;SDS011;64374;51.482;7.408;2024-01-30T16:46:44;2.13;;;1.70;;
4355;SDS011;64374;51.482;7.408;2024-01-30T16:49:14;4.70;;;1.63;;
4355;SDS011;64374;51.482;7.408;2024-01-30T16:51:43;1.97;;;1.60;;
4355;SDS011;64374;51.482;7.408;2024-01-30T16:54:14;6.63;;;1.80;;
4355;SDS011;64374;51.482;7.408;2024-01-30T16:56:43;2.60;;;1.60;;
4355;SDS011;64374;51.482;7.408;2024-01-30T16:59:14;6.20;;;1.80;;
4355;SDS011;64374;51.482;7.408;2024-01-30T17:01:47;6.33;;;2.23;;